sensor_id;sensor_type;location;lat;lon;timestamp;pressure;altitude;pressure_sealevel;temperature;humidity
59110;BME280;44895;47.438;18.978;2023-04-03T00:01:28;99973.72;;;7.66;100.00
59110;BME280;44895;47.438;18.978;2023-04-03T00:04:32;99974.78;;;7.80;100.00
59110;BME280;44895;47.438;18.978;2023-04-03T00:07:35;99974.25;;;7.73;100.00
59110;BME280;44895;47.438;18.978;2023-04-03T00:10:39;99972.09;;;7.70;100.00
59110;BME280;44895;47.438;18.978;2023-04-03T00:13:44;99973.44;;;7.78;100.00
59110;BME280;44895;47.438;18.978;2023-04-03T00:16:48;99971.81;;;7.77;100.00
59110;BME280;44895;47.438;18.978;2023-04-03T00:19:52;99983.53;;;7.51;100.00
59110;BME280;44895;47.438;18.978;2023-04-03T00:22:55;99979.13;;;7.66;100.00
59110;BME280;44895;47.438;18.978;2023-04-03T00:25:59;99984.00;;;7.69;100.00
59110;BME280;44895;47.438;18.978;2023-04-03T00:29:02;99981.31;;;7.69;100.00
59110;BME280;44895;47.438;18.978;2023-04-03T00:32:06;99985.97;;;7.43;100.00
59110;BME280;44895;47.438;18.978;2023-04-03T00:35:10;99983.28;;;7.38;100.00
59110;BME280;44895;47.438;18.978;2023-04-03T00:38:14;99991.66;;;7.41;100.00
59110;BME280;44895;47.438;18.978;2023-04-03T00:41:17;99988.19;;;7.25;100.00
59110;BME280;44895;47.438;18.978;2023-04-03T00:44:22;99999.81;;;7.31;100.00
59110;BME280;44895;47.438;18.978;2023-04-03T00:47:45;99993.59;;;7.25;100.00
59110;BME280;44895;47.438;18.978;2023-04-03T00:50:49;99994.91;;;7.38;100.00
59110;BME280;44895;47.438;18.978;2023-04-03T00:53:54;100001.13;;;7.39;100.00
59110;BME280;44895;47.438;18.978;2023-04-03T00:56:59;100002.50;;;7.26;100.00
59110;BME280;44895;47.438;18.978;2023-04-03T01:00:05;100005.75;;;7.28;100.00
59110;BME280;44895;47.438;18.978;2023-04-03T01:03:10;100006.03;;;7.21;100.00
59110;BME280;44895;47.438;18.978;2023-04-03T01:06:16;100003.31;;;7.21;100.00
59110;BME280;44895;47.438;18.978;2023-04-03T01:09:20;100004.38;;;7.30;100.00
59110;BME280;44895;47.438;18.978;2023-04-03T01:12:28;100004.13;;;7.27;100.00
59110;BME280;44895;47.438;18.978;2023-04-03T01:15:33;100011.44;;;7.21;100.00
59110;BME280;44895;47.438;18.978;2023-04-03T01:18:39;100008.44;;;7.23;100.00
59110;BME280;44895;47.438;18.978;2023-04-03T01:24:56;100007.38;;;6.93;100.00
59110;BME280;44895;47.438;18.978;2023-04-03T01:28:00;100013.88;;;7.07;100.00
59110;BME280;44895;47.438;18.978;2023-04-03T01:34:27;100011.16;;;7.17;100.00
59110;BME280;44895;47.438;18.978;2023-04-03T01:37:31;100008.75;;;7.06;100.00
59110;BME280;44895;47.438;18.978;2023-04-03T01:40:35;100012.25;;;7.01;100.00
59110;BME280;44895;47.438;18.978;2023-04-03T01:43:40;100015.50;;;7.08;100.00
59110;BME280;44895;47.438;18.978;2023-04-03T01:46:44;100020.63;;;6.99;100.00
59110;BME280;44895;47.438;18.978;2023-04-03T01:49:47;100015.50;;;7.03;100.00
59110;BME280;44895;47.438;18.978;2023-04-03T01:52:51;100017.38;;;7.13;100.00
59110;BME280;44895;47.438;18.978;2023-04-03T01:55:55;100029.00;;;7.03;100.00
59110;BME280;44895;47.438;18.978;2023-04-03T01:58:58;100017.13;;;6.94;100.00
59110;BME280;44895;47.438;18.978;2023-04-03T02:02:02;100022.78;;;6.87;100.00
59110;BME280;44895;47.438;18.978;2023-04-03T02:05:05;100023.59;;;6.98;100.00
59110;BME280;44895;47.438;18.978;2023-04-03T02:08:10;100025.78;;;6.85;100.00
59110;BME280;44895;47.438;18.978;2023-04-03T02:11:14;100022.00;;;7.02;100.00
59110;BME280;44895;47.438;18.978;2023-04-03T02:14:18;100026.84;;;7.05;100.00
59110;BME280;44895;47.438;18.978;2023-04-03T02:17:21;100030.09;;;6.92;100.00
59110;BME280;44895;47.438;18.978;2023-04-03T02:20:25;100030.34;;;6.85;100.00
59110;BME280;44895;47.438;18.978;2023-04-03T02:23:29;100029.00;;;6.82;100.00
59110;BME280;44895;47.438;18.978;2023-04-03T02:26:33;100037.09;;;6.57;100.00
59110;BME280;44895;47.438;18.978;2023-04-03T02:29:36;100033.03;;;6.64;100.00
59110;BME280;44895;47.438;18.978;2023-04-03T02:32:41;100030.63;;;6.68;100.00
59110;BME280;44895;47.438;18.978;2023-04-03T02:35:45;100033.88;;;6.75;100.00
59110;BME280;44895;47.438;18.978;2023-04-03T02:38:57;100035.19;;;6.67;100.00
59110;BME280;44895;47.438;18.978;2023-04-03T02:42:01;100029.81;;;6.78;100.00
59110;BME280;44895;47.438;18.978;2023-04-03T02:45:05;100030.06;;;6.56;100.00
59110;BME280;44895;47.438;18.978;2023-04-03T02:48:09;100031.97;;;6.55;100.00
59110;BME280;44895;47.438;18.978;2023-04-03T02:51:12;100026.84;;;6.59;100.00
59110;BME280;44895;47.438;18.978;2023-04-03T02:54:16;100034.88;;;6.43;100.00
59110;BME280;44895;47.438;18.978;2023-04-03T02:57:24;100027.88;;;6.42;100.00
59110;BME280;44895;47.438;18.978;2023-04-03T03:00:28;100035.41;;;6.30;100.00
59110;BME280;44895;47.438;18.978;2023-04-03T03:03:32;100030.53;;;6.27;100.00
59110;BME280;44895;47.438;18.978;2023-04-03T03:06:35;100029.25;;;6.45;100.00
59110;BME280;44895;47.438;18.978;2023-04-03T03:09:40;100030.00;;;6.25;100.00
59110;BME280;44895;47.438;18.978;2023-04-03T03:12:44;100025.44;;;6.30;100.00
59110;BME280;44895;47.438;18.978;2023-04-03T03:15:47;100034.59;;;6.29;100.00
59110;BME280;44895;47.438;18.978;2023-04-03T03:18:51;100034.34;;;6.31;100.00
59110;BME280;44895;47.438;18.978;2023-04-03T03:21:55;100034.59;;;6.29;100.00
59110;BME280;44895;47.438;18.978;2023-04-03T03:24:59;100031.56;;;6.10;100.00
59110;BME280;44895;47.438;18.978;2023-04-03T03:28:04;100037.81;;;6.16;100.00
59110;BME280;44895;47.438;18.978;2023-04-03T03:31:08;100042.91;;;6.07;100.00
59110;BME280;44895;47.438;18.978;2023-04-03T03:34:13;100037.19;;;5.98;100.00
59110;BME280;44895;47.438;18.978;2023-04-03T03:37:17;100035.09;;;6.11;100.00
59110;BME280;44895;47.438;18.978;2023-04-03T03:40:21;100040.34;;;5.85;100.00
59110;BME280;44895;47.438;18.978;2023-04-03T03:43:24;100037.91;;;5.83;100.00
59110;BME280;44895;47.438;18.978;2023-04-03T03:46:30;100045.06;;;6.10;100.00
59110;BME280;44895;47.438;18.978;2023-04-03T03:49:33;100046.31;;;5.92;100.00
59110;BME280;44895;47.438;18.978;2023-04-03T03:52:38;100043.28;;;5.78;100.00
59110;BME280;44895;47.438;18.978;2023-04-03T03:55:42;100052.41;;;5.72;100.00
59110;BME280;44895;47.438;18.978;2023-04-03T03:58:46;100052.47;;;5.82;100.00
59110;BME280;44895;47.438;18.978;2023-04-03T04:01:50;100047.34;;;5.81;100.00
59110;BME280;44895;47.438;18.978;2023-04-03T04:04:54;100046.22;;;5.71;100.00
59110;BME280;44895;47.438;18.978;2023-04-03T04:07:58;100050.75;;;5.66;100.00
59110;BME280;44895;47.438;18.978;2023-04-03T04:11:03;100050.72;;;5.55;100.00
59110;BME280;44895;47.438;18.978;2023-04-03T04:14:07;100049.09;;;5.54;100.00
59110;BME280;44895;47.438;18.978;2023-04-03T04:17:11;100045.63;;;5.64;100.00
59110;BME280;44895;47.438;18.978;2023-04-03T04:20:15;100044.88;;;5.74;100.00
59110;BME280;44895;47.438;18.978;2023-04-03T04:23:18;100048.41;;;5.80;100.00
59110;BME280;44895;47.438;18.978;2023-04-03T04:26:23;100054.38;;;5.87;100.00
59110;BME280;44895;47.438;18.978;2023-04-03T04:29:28;100054.09;;;5.83;100.00
59110;BME280;44895;47.438;18.978;2023-04-03T04:32:31;100054.59;;;5.75;100.00
59110;BME280;44895;47.438;18.978;2023-04-03T04:35:35;100051.09;;;5.80;100.00
59110;BME280;44895;47.438;18.978;2023-04-03T04:38:41;100050.56;;;5.78;100.00
59110;BME280;44895;47.438;18.978;2023-04-03T04:41:45;100059.88;;;5.60;100.00
59110;BME280;44895;47.438;18.978;2023-04-03T04:44:48;100061.81;;;5.64;100.00
59110;BME280;44895;47.438;18.978;2023-04-03T04:47:54;100065.41;;;5.80;100.00
59110;BME280;44895;47.438;18.978;2023-04-03T04:50:58;100052.47;;;5.82;100.00
59110;BME280;44895;47.438;18.978;2023-04-03T04:54:02;100057.59;;;5.84;100.00
59110;BME280;44895;47.438;18.978;2023-04-03T04:57:02;100064.38;;;5.86;100.00
59110;BME280;44895;47.438;18.978;2023-04-03T05:00:07;100064.97;;;6.04;100.00
59110;BME280;44895;47.438;18.978;2023-04-03T05:03:11;100063.38;;;6.03;100.00
59110;BME280;44895;47.438;18.978;2023-04-03T05:06:15;100061.78;;;6.07;100.00
59110;BME280;44895;47.438;18.978;2023-04-03T05:09:19;100070.59;;;5.97;100.00
59110;BME280;44895;47.438;18.978;2023-04-03T05:12:24;100069.28;;;6.00;100.00
59110;BME280;44895;47.438;18.978;2023-04-03T05:15:33;100065.56;;;6.16;100.00
59110;BME280;44895;47.438;18.978;2023-04-03T05:18:37;100067.47;;;6.16;100.00
59110;BME280;44895;47.438;18.978;2023-04-03T05:21:46;100069.19;;;6.58;100.00
59110;BME280;44895;47.438;18.978;2023-04-03T05:24:52;100072.94;;;6.42;100.00
59110;BME280;44895;47.438;18.978;2023-04-03T05:27:57;100072.63;;;6.23;100.00
59110;BME280;44895;47.438;18.978;2023-04-03T05:31:01;100070.25;;;6.57;100.00
59110;BME280;44895;47.438;18.978;2023-04-03T05:34:11;100063.81;;;6.68;100.00
59110;BME280;44895;47.438;18.978;2023-04-03T05:37:16;100068.41;;;6.94;100.00
59110;BME280;44895;47.438;18.978;2023-04-03T05:40:20;100068.69;;;7.13;100.00
59110;BME280;44895;47.438;18.978;2023-04-03T05:43:28;100070.84;;;6.95;100.00
59110;BME280;44895;47.438;18.978;2023-04-03T05:46:32;100073.28;;;7.12;100.00
59110;BME280;44895;47.438;18.978;2023-04-03T05:49:40;100076.53;;;7.30;100.00
59110;BME280;44895;47.438;18.978;2023-04-03T05:52:45;100080.25;;;7.55;100.00
59110;BME280;44895;47.438;18.978;2023-04-03T05:55:51;100092.44;;;7.37;100.00
59110;BME280;44895;47.438;18.978;2023-04-03T05:58:55;100084.34;;;7.42;100.00
59110;BME280;44895;47.438;18.978;2023-04-03T06:02:00;100088.91;;;7.62;100.00
59110;BME280;44895;47.438;18.978;2023-04-03T06:05:05;100089.97;;;7.66;100.00
59110;BME280;44895;47.438;18.978;2023-04-03T06:08:08;100090.56;;;7.47;100.00
59110;BME280;44895;47.438;18.978;2023-04-03T06:11:12;100097.50;;;7.84;100.00
59110;BME280;44895;47.438;18.978;2023-04-03T06:14:16;100098.84;;;7.87;100.00
59110;BME280;44895;47.438;18.978;2023-04-03T06:17:19;100099.88;;;7.96;100.00
59110;BME280;44895;47.438;18.978;2023-04-03T06:20:24;100101.50;;;8.03;100.00
59110;BME280;44895;47.438;18.978;2023-04-03T06:23:27;100098.59;;;7.73;100.00
59110;BME280;44895;47.438;18.978;2023-04-03T06:26:31;100103.47;;;7.87;100.00
59110;BME280;44895;47.438;18.978;2023-04-03T06:29:35;100097.63;;;8.24;100.00
59110;BME280;44895;47.438;18.978;2023-04-03T06:32:38;100106.44;;;8.56;98.24
59110;BME280;44895;47.438;18.978;2023-04-03T06:35:42;100097.78;;;9.57;96.72
59110;BME280;44895;47.438;18.978;2023-04-03T06:38:45;100095.41;;;10.23;86.72
59110;BME280;44895;47.438;18.978;2023-04-03T06:41:49;100096.34;;;9.65;82.70
59110;BME280;44895;47.438;18.978;2023-04-03T06:44:55;100102.25;;;9.72;85.75
59110;BME280;44895;47.438;18.978;2023-04-03T06:47:58;100104.03;;;9.58;85.44
59110;BME280;44895;47.438;18.978;2023-04-03T06:51:02;100114.66;;;9.78;86.79
59110;BME280;44895;47.438;18.978;2023-04-03T06:54:06;100111.59;;;9.85;84.89
59110;BME280;44895;47.438;18.978;2023-04-03T06:57:11;100121.34;;;10.78;84.98
59110;BME280;44895;47.438;18.978;2023-04-03T07:00:15;100107.41;;;10.66;76.90
59110;BME280;44895;47.438;18.978;2023-04-03T07:03:19;100115.47;;;10.71;76.23
59110;BME280;44895;47.438;18.978;2023-04-03T07:06:23;100124.09;;;10.54;75.91
59110;BME280;44895;47.438;18.978;2023-04-03T07:09:26;100125.50;;;10.27;78.42
59110;BME280;44895;47.438;18.978;2023-04-03T07:12:30;100127.22;;;9.99;77.77
59110;BME280;44895;47.438;18.978;2023-04-03T07:15:33;100131.06;;;9.92;78.21
59110;BME280;44895;47.438;18.978;2023-04-03T07:18:37;100133.09;;;9.52;76.86
59110;BME280;44895;47.438;18.978;2023-04-03T07:21:40;100133.31;;;10.09;78.28
59110;BME280;44895;47.438;18.978;2023-04-03T07:24:45;100129.56;;;10.05;75.97
59110;BME280;44895;47.438;18.978;2023-04-03T07:27:49;100122.47;;;10.09;77.45
59110;BME280;44895;47.438;18.978;2023-04-03T07:30:53;100123.84;;;9.83;77.76
59110;BME280;44895;47.438;18.978;2023-04-03T07:33:58;100131.56;;;9.70;76.07
59110;BME280;44895;47.438;18.978;2023-04-03T07:37:01;100136.97;;;9.75;76.16
59110;BME280;44895;47.438;18.978;2023-04-03T07:40:06;100135.06;;;10.00;74.84
59110;BME280;44895;47.438;18.978;2023-04-03T07:43:09;100136.16;;;9.99;74.29
59110;BME280;44895;47.438;18.978;2023-04-03T07:46:13;100142.88;;;10.26;75.10
59110;BME280;44895;47.438;18.978;2023-04-03T07:49:17;100139.44;;;9.96;73.92
59110;BME280;44895;47.438;18.978;2023-04-03T07:52:26;100145.53;;;9.83;74.18
59110;BME280;44895;47.438;18.978;2023-04-03T07:55:29;100146.84;;;9.61;73.41
59110;BME280;44895;47.438;18.978;2023-04-03T07:58:34;100154.31;;;9.74;72.45
59110;BME280;44895;47.438;18.978;2023-04-03T08:01:38;100151.81;;;10.07;73.43
59110;BME280;44895;47.438;18.978;2023-04-03T08:04:42;100153.38;;;9.89;71.88
59110;BME280;44895;47.438;18.978;2023-04-03T08:07:46;100156.81;;;9.95;74.92
59110;BME280;44895;47.438;18.978;2023-04-03T08:10:53;100162.25;;;9.95;73.43
59110;BME280;44895;47.438;18.978;2023-04-03T08:13:57;100152.53;;;10.13;71.59
59110;BME280;44895;47.438;18.978;2023-04-03T08:17:01;100161.03;;;10.06;72.66
59110;BME280;44895;47.438;18.978;2023-04-03T08:20:06;100160.00;;;10.02;72.21
59110;BME280;44895;47.438;18.978;2023-04-03T08:23:10;100165.94;;;10.04;73.40
59110;BME280;44895;47.438;18.978;2023-04-03T08:26:15;100165.66;;;10.30;72.68
59110;BME280;44895;47.438;18.978;2023-04-03T08:29:19;100162.66;;;10.07;70.64
59110;BME280;44895;47.438;18.978;2023-04-03T08:32:24;100166.31;;;10.46;70.52
59110;BME280;44895;47.438;18.978;2023-04-03T08:35:27;100152.94;;;10.25;69.85
59110;BME280;44895;47.438;18.978;2023-04-03T08:38:31;100159.53;;;10.43;69.65
59110;BME280;44895;47.438;18.978;2023-04-03T08:41:36;100158.84;;;10.57;70.13
59110;BME280;44895;47.438;18.978;2023-04-03T08:44:52;100158.34;;;10.93;66.96
59110;BME280;44895;47.438;18.978;2023-04-03T08:48:06;100168.94;;;10.75;68.20
59110;BME280;44895;47.438;18.978;2023-04-03T08:51:14;100164.22;;;10.62;70.11
59110;BME280;44895;47.438;18.978;2023-04-03T08:54:26;100156.22;;;10.90;66.11
59110;BME280;44895;47.438;18.978;2023-04-03T08:57:41;100158.09;;;10.70;65.23
59110;BME280;44895;47.438;18.978;2023-04-03T09:00:51;100172.50;;;10.52;63.34
59110;BME280;44895;47.438;18.978;2023-04-03T09:03:56;100169.28;;;10.88;65.15
59110;BME280;44895;47.438;18.978;2023-04-03T09:07:03;100170.28;;;10.54;65.92
59110;BME280;44895;47.438;18.978;2023-04-03T09:10:10;100174.16;;;10.91;64.79
59110;BME280;44895;47.438;18.978;2023-04-03T09:13:24;100173.59;;;11.27;64.53
59110;BME280;44895;47.438;18.978;2023-04-03T09:16:39;100173.25;;;11.34;61.48
59110;BME280;44895;47.438;18.978;2023-04-03T09:19:49;100170.81;;;11.65;61.33
59110;BME280;44895;47.438;18.978;2023-04-03T09:22:56;100175.75;;;11.96;60.22
59110;BME280;44895;47.438;18.978;2023-04-03T09:26:05;100181.56;;;11.89;59.53
59110;BME280;44895;47.438;18.978;2023-04-03T09:29:10;100174.97;;;11.43;58.30
59110;BME280;44895;47.438;18.978;2023-04-03T09:32:29;100179.72;;;11.85;59.14
59110;BME280;44895;47.438;18.978;2023-04-03T09:35:37;100180.09;;;11.64;54.47
59110;BME280;44895;47.438;18.978;2023-04-03T09:38:41;100178.59;;;12.19;56.81
59110;BME280;44895;47.438;18.978;2023-04-03T09:41:56;100161.53;;;12.27;55.25
59110;BME280;44895;47.438;18.978;2023-04-03T09:45:00;100160.44;;;12.14;53.71
59110;BME280;44895;47.438;18.978;2023-04-03T09:51:17;100156.38;;;12.53;55.16
59110;BME280;44895;47.438;18.978;2023-04-03T09:54:34;100153.09;;;12.79;56.09
59110;BME280;44895;47.438;18.978;2023-04-03T09:57:40;100159.28;;;12.71;54.88
59110;BME280;44895;47.438;18.978;2023-04-03T10:00:44;100169.50;;;12.23;53.43
59110;BME280;44895;47.438;18.978;2023-04-03T10:04:04;100160.03;;;11.74;53.71
59110;BME280;44895;47.438;18.978;2023-04-03T10:10:31;100157.38;;;12.02;53.01
59110;BME280;44895;47.438;18.978;2023-04-03T10:13:35;100164.88;;;11.63;52.74
59110;BME280;44895;47.438;18.978;2023-04-03T10:16:41;100154.34;;;11.42;53.53
59110;BME280;44895;47.438;18.978;2023-04-03T10:19:58;100159.72;;;11.09;52.72
59110;BME280;44895;47.438;18.978;2023-04-03T10:26:35;100164.22;;;11.19;55.19
59110;BME280;44895;47.438;18.978;2023-04-03T10:39:57;100151.78;;;11.13;57.76
59110;BME280;44895;47.438;18.978;2023-04-03T10:43:47;100153.19;;;11.10;58.27
59110;BME280;44895;47.438;18.978;2023-04-03T10:46:32;100158.06;;;11.14;57.90
59110;BME280;44895;47.438;18.978;2023-04-03T10:55:52;100148.97;;;11.37;59.22
59110;BME280;44895;47.438;18.978;2023-04-03T10:59:09;100155.63;;;11.31;57.70
59110;BME280;44895;47.438;18.978;2023-04-03T11:02:23;100151.69;;;11.37;58.43
59110;BME280;44895;47.438;18.978;2023-04-03T11:05:39;100153.13;;;11.49;57.18
59110;BME280;44895;47.438;18.978;2023-04-03T11:08:45;100146.47;;;11.41;54.34
59110;BME280;44895;47.438;18.978;2023-04-03T11:11:49;100146.38;;;11.46;54.38
59110;BME280;44895;47.438;18.978;2023-04-03T11:14:56;100147.97;;;11.14;54.92
59110;BME280;44895;47.438;18.978;2023-04-03T11:18:09;100151.47;;;11.01;57.25
59110;BME280;44895;47.438;18.978;2023-04-03T11:21:21;100143.28;;;11.20;56.70
59110;BME280;44895;47.438;18.978;2023-04-03T11:24:28;100135.84;;;11.25;56.17
59110;BME280;44895;47.438;18.978;2023-04-03T11:37:11;100126.69;;;11.02;58.39
59110;BME280;44895;47.438;18.978;2023-04-03T11:47:12;100116.00;;;11.25;59.61
59110;BME280;44895;47.438;18.978;2023-04-03T11:52:55;100124.00;;;11.35;58.66
59110;BME280;44895;47.438;18.978;2023-04-03T11:55:59;100122.84;;;11.22;57.87
59110;BME280;44895;47.438;18.978;2023-04-03T12:02:56;100128.91;;;11.00;58.19
59110;BME280;44895;47.438;18.978;2023-04-03T12:05:40;100115.06;;;11.16;58.15
59110;BME280;44895;47.438;18.978;2023-04-03T12:08:45;100117.56;;;11.31;56.97
59110;BME280;44895;47.438;18.978;2023-04-03T12:11:49;100126.97;;;11.20;56.29
59110;BME280;44895;47.438;18.978;2023-04-03T12:14:53;100109.72;;;11.10;57.27
59110;BME280;44895;47.438;18.978;2023-04-03T12:17:56;100105.53;;;11.32;55.03
59110;BME280;44895;47.438;18.978;2023-04-03T12:21:00;100103.13;;;11.31;55.32
59110;BME280;44895;47.438;18.978;2023-04-03T12:27:23;100098.59;;;11.40;55.23
59110;BME280;44895;47.438;18.978;2023-04-03T12:30:27;100108.97;;;11.24;55.66
59110;BME280;44895;47.438;18.978;2023-04-03T12:46:22;100104.75;;;10.99;56.22
59110;BME280;44895;47.438;18.978;2023-04-03T12:52:33;100097.78;;;10.73;55.08
59110;BME280;44895;47.438;18.978;2023-04-03T12:55:38;100090.56;;;10.83;55.10
59110;BME280;44895;47.438;18.978;2023-04-03T12:58:42;100099.53;;;11.02;55.17
59110;BME280;44895;47.438;18.978;2023-04-03T13:01:53;100084.16;;;11.12;55.82
59110;BME280;44895;47.438;18.978;2023-04-03T13:04:58;100080.41;;;11.07;54.58
59110;BME280;44895;47.438;18.978;2023-04-03T13:08:04;100077.72;;;11.54;56.26
59110;BME280;44895;47.438;18.978;2023-04-03T13:11:09;100078.97;;;11.29;55.24
59110;BME280;44895;47.438;18.978;2023-04-03T13:14:16;100082.03;;;11.08;54.73
59110;BME280;44895;47.438;18.978;2023-04-03T13:17:20;100068.34;;;11.14;52.99
59110;BME280;44895;47.438;18.978;2023-04-03T13:20:29;100070.47;;;11.17;54.75
59110;BME280;44895;47.438;18.978;2023-04-03T13:23:34;100067.75;;;11.17;53.93
59110;BME280;44895;47.438;18.978;2023-04-03T13:26:38;100054.13;;;11.64;53.86
59110;BME280;44895;47.438;18.978;2023-04-03T13:29:42;100060.66;;;11.49;54.44
59110;BME280;44895;47.438;18.978;2023-04-03T13:32:46;100051.00;;;11.42;53.96
59110;BME280;44895;47.438;18.978;2023-04-03T13:35:54;100056.34;;;11.48;53.97
59110;BME280;44895;47.438;18.978;2023-04-03T13:45:23;100058.75;;;11.49;53.85
59110;BME280;44895;47.438;18.978;2023-04-03T13:48:34;100041.84;;;11.66;53.49
59110;BME280;44895;47.438;18.978;2023-04-03T13:51:38;100050.50;;;11.40;52.85
59110;BME280;44895;47.438;18.978;2023-04-03T13:54:41;100044.34;;;11.49;52.79
59110;BME280;44895;47.438;18.978;2023-04-03T14:01:07;100028.75;;;11.68;53.37
59110;BME280;44895;47.438;18.978;2023-04-03T14:04:16;100027.84;;;11.59;53.41
59110;BME280;44895;47.438;18.978;2023-04-03T14:07:20;100033.88;;;11.56;52.53
59110;BME280;44895;47.438;18.978;2023-04-03T14:10:24;100035.69;;;11.47;53.77
59110;BME280;44895;47.438;18.978;2023-04-03T14:13:29;100041.72;;;11.43;53.10
59110;BME280;44895;47.438;18.978;2023-04-03T14:16:36;100030.97;;;11.66;54.70
59110;BME280;44895;47.438;18.978;2023-04-03T14:19:40;100038.91;;;11.49;54.46
59110;BME280;44895;47.438;18.978;2023-04-03T14:22:44;100026.13;;;11.35;53.21
59110;BME280;44895;47.438;18.978;2023-04-03T14:25:47;100032.97;;;11.47;53.08
59110;BME280;44895;47.438;18.978;2023-04-03T14:28:52;100028.75;;;11.54;56.45
59110;BME280;44895;47.438;18.978;2023-04-03T14:31:56;100031.47;;;11.40;51.65
59110;BME280;44895;47.438;18.978;2023-04-03T14:35:00;100024.09;;;11.55;53.88
59110;BME280;44895;47.438;18.978;2023-04-03T14:38:05;100024.94;;;11.55;53.79
59110;BME280;44895;47.438;18.978;2023-04-03T14:41:16;100035.59;;;11.38;53.45
59110;BME280;44895;47.438;18.978;2023-04-03T14:44:20;100029.97;;;11.62;55.45
59110;BME280;44895;47.438;18.978;2023-04-03T14:47:24;100035.09;;;11.50;53.65
59110;BME280;44895;47.438;18.978;2023-04-03T14:50:29;100038.41;;;11.47;54.20
59110;BME280;44895;47.438;18.978;2023-04-03T14:53:32;100041.81;;;11.38;54.66
59110;BME280;44895;47.438;18.978;2023-04-03T14:56:36;100049.69;;;10.74;52.82
59110;BME280;44895;47.438;18.978;2023-04-03T14:59:40;100044.03;;;10.70;53.92
59110;BME280;44895;47.438;18.978;2023-04-03T15:02:43;100037.25;;;10.29;53.52
59110;BME280;44895;47.438;18.978;2023-04-03T15:05:47;100040.09;;;10.43;54.10
59110;BME280;44895;47.438;18.978;2023-04-03T15:08:51;100036.66;;;10.38;53.49
59110;BME280;44895;47.438;18.978;2023-04-03T15:11:55;100043.13;;;10.18;52.22
59110;BME280;44895;47.438;18.978;2023-04-03T15:14:58;100052.34;;;9.98;52.25
59110;BME280;44895;47.438;18.978;2023-04-03T15:18:03;100052.81;;;10.24;54.00
59110;BME280;44895;47.438;18.978;2023-04-03T15:21:06;100058.38;;;10.14;53.26
59110;BME280;44895;47.438;18.978;2023-04-03T15:24:10;100044.09;;;9.84;53.93
59110;BME280;44895;47.438;18.978;2023-04-03T15:27:14;100044.25;;;9.92;53.61
59110;BME280;44895;47.438;18.978;2023-04-03T15:30:18;100050.09;;;9.81;52.85
59110;BME280;44895;47.438;18.978;2023-04-03T15:33:22;100048.53;;;9.99;53.98
59110;BME280;44895;47.438;18.978;2023-04-03T15:36:26;100045.19;;;9.83;53.00
59110;BME280;44895;47.438;18.978;2023-04-03T15:39:29;100050.66;;;9.77;53.48
59110;BME280;44895;47.438;18.978;2023-04-03T15:42:33;100047.53;;;9.65;54.28
59110;BME280;44895;47.438;18.978;2023-04-03T15:45:37;100053.94;;;9.21;52.75
59110;BME280;44895;47.438;18.978;2023-04-03T15:48:40;100051.38;;;9.35;54.07
59110;BME280;44895;47.438;18.978;2023-04-03T15:51:44;100055.66;;;9.11;53.00
59110;BME280;44895;47.438;18.978;2023-04-03T15:54:48;100057.94;;;8.99;52.74
59110;BME280;44895;47.438;18.978;2023-04-03T15:57:52;100045.41;;;9.08;53.88
59110;BME280;44895;47.438;18.978;2023-04-03T16:00:56;100067.81;;;8.85;53.09
59110;BME280;44895;47.438;18.978;2023-04-03T16:03:59;100064.31;;;8.79;53.33
59110;BME280;44895;47.438;18.978;2023-04-03T16:07:03;100062.47;;;8.74;52.44
59110;BME280;44895;47.438;18.978;2023-04-03T16:10:07;100053.03;;;9.01;53.14
59110;BME280;44895;47.438;18.978;2023-04-03T16:13:11;100058.88;;;8.79;53.22
59110;BME280;44895;47.438;18.978;2023-04-03T16:16:15;100058.69;;;8.70;52.69
59110;BME280;44895;47.438;18.978;2023-04-03T16:19:18;100053.00;;;8.72;52.81
59110;BME280;44895;47.438;18.978;2023-04-03T16:22:23;100047.75;;;8.86;53.55
59110;BME280;44895;47.438;18.978;2023-04-03T16:25:27;100043.00;;;8.67;52.96
59110;BME280;44895;47.438;18.978;2023-04-03T16:28:31;100051.78;;;8.43;52.17
59110;BME280;44895;47.438;18.978;2023-04-03T16:31:34;100060.69;;;8.54;52.73
59110;BME280;44895;47.438;18.978;2023-04-03T16:34:38;100067.22;;;8.43;52.84
59110;BME280;44895;47.438;18.978;2023-04-03T16:37:43;100068.16;;;8.68;53.38
59110;BME280;44895;47.438;18.978;2023-04-03T16:40:47;100068.28;;;8.52;53.52
59110;BME280;44895;47.438;18.978;2023-04-03T16:43:51;100078.84;;;8.43;52.69
59110;BME280;44895;47.438;18.978;2023-04-03T16:46:55;100080.22;;;8.46;52.60
59110;BME280;44895;47.438;18.978;2023-04-03T16:49:59;100077.94;;;8.63;52.18
59110;BME280;44895;47.438;18.978;2023-04-03T16:53:02;100076.69;;;8.51;53.12
59110;BME280;44895;47.438;18.978;2023-04-03T16:56:06;100084.78;;;8.56;53.33
59110;BME280;44895;47.438;18.978;2023-04-03T16:59:10;100097.22;;;8.57;53.74
59110;BME280;44895;47.438;18.978;2023-04-03T17:02:13;100093.19;;;8.54;53.21
59110;BME280;44895;47.438;18.978;2023-04-03T17:05:17;100103.50;;;8.47;54.24
59110;BME280;44895;47.438;18.978;2023-04-03T17:08:20;100109.16;;;8.45;54.15
59110;BME280;44895;47.438;18.978;2023-04-03T17:11:24;100122.69;;;8.51;54.19
59110;BME280;44895;47.438;18.978;2023-04-03T17:14:28;100132.22;;;8.32;53.63
59110;BME280;44895;47.438;18.978;2023-04-03T17:17:32;100134.06;;;8.53;53.73
59110;BME280;44895;47.438;18.978;2023-04-03T17:20:37;100156.84;;;8.36;54.12
59110;BME280;44895;47.438;18.978;2023-04-03T17:23:42;100161.16;;;8.32;53.57